Port Austin, MI (48467)

8:51 AM EDT on September 04, 2015 (GMT -0400)
Twin Sisters | | Change Station
CLOSE
Current Station
Personal Weather Station
Location: Port Austin, MI
Elevation: 574 ft
Nearby Weather Stations

Elev 574 ft 44.05 °N, 83.00 °W | Updated 2 minutes ago

Overcast
Overcast
69.7 °F
Feels Like 69.7 °F
N
0.0
Wind Variable Wind from ENE
Gusts 1.0 mph

Today
High -- | Low -- °F
--% Chance of Precip.
Yesterday
High -- | Low -- °F
Precip. -- in
6:58 AM 8:02 PM
Waning Gibbous, 60% visible
Pressure 30.04 in
Visibility 4.0 miles
Clouds Overcast 2700 ft
Dew Point 69 °F
Humidity 98%
Rainfall 0.12 in
Snow Depth Not available.
UV 0 out of 12
Pollen 9.40 out of 12
Air Quality Not available.
Flu Activity Not available.
METAR KBAX 041235Z AUTO 14004KT 4SM RA OVC027 20/20 A3004 RMK AO2 T02000197
Pressure 30.04 in
Visibility 4.0 miles
Clouds Overcast 2700 ft
Dew Point 69 °F
Humidity 98%
Rainfall 0.12 in
Snow Depth Not available.
UV 0 out of 12
Pollen 9.40 out of 12
Air Quality Not available.
Flu Activity Not available.
METAR KBAX 041235Z AUTO 14004KT 4SM RA OVC027 20/20 A3004 RMK AO2 T02000197

10-Day Weather Forecast

×

Almanac

Astronomy

Sep. 04, 2015 Rise Set
Actual Time
Civil Twilight
Nautical Twilight
Astronomical Twilight
Moon
Length of Visible Light
Length of Day
Tomorrow will be .
, % of the Moon is Illuminated

Today's Extremes

State Highs State Lows

Community

WunderPhotos

Upload Photos

1,852,174 photos uploaded!

WunderBlogs® & News

Nearby

Air Quality

  Air Quality AQ Index Pollutant
Not available.

Snow Depth

Station Depth Elevation

Earthquake Activity

City Distance Mag. Time & Date
Minimum magnitude displayed is 2.5.

Coastal Water Temperatures

Place Temperature

Stations

Nearby Weather Stations

Station Location Temp. Windchill Dew Point Humidity Wind Precip. Elev Updated Type